createdAt,value
2023-04-25T00:00:09.924Z,8.71
2023-04-25T00:02:44.528Z,8.69
2023-04-25T00:05:13.539Z,8.63
2023-04-25T00:07:43.140Z,8.62
2023-04-25T00:10:13.075Z,8.61
2023-04-25T00:12:42.547Z,8.60
2023-04-25T00:15:13.639Z,8.65
2023-04-25T00:17:41.895Z,8.64
2023-04-25T00:20:11.308Z,8.63
2023-04-25T00:22:39.692Z,8.63
2023-04-25T00:25:09.283Z,8.55
2023-04-25T00:27:38.003Z,8.59
2023-04-25T00:30:07.579Z,8.59
2023-04-25T00:32:37.351Z,8.57
2023-04-25T00:35:07.012Z,8.53
2023-04-25T00:37:35.423Z,8.52
2023-04-25T00:40:03.816Z,8.57
2023-04-25T00:42:33.626Z,8.54
2023-04-25T00:45:06.374Z,8.53
2023-04-25T00:47:39.609Z,8.44
2023-04-25T00:50:09.608Z,8.45
2023-04-25T00:52:38.679Z,8.48
2023-04-25T00:55:10.255Z,8.42
2023-04-25T00:57:39.083Z,8.39
2023-04-25T01:00:10.730Z,8.36
2023-04-25T01:02:40.704Z,8.29
2023-04-25T01:05:09.752Z,8.25
2023-04-25T01:07:38.257Z,8.18
2023-04-25T01:10:08.308Z,8.12
2023-04-25T01:12:36.610Z,8.08
2023-04-25T01:15:05.539Z,8.06
2023-04-25T01:17:34.548Z,8.04
2023-04-25T01:20:06.213Z,7.97
2023-04-25T01:22:36.452Z,7.90
2023-04-25T01:25:05.144Z,7.87
2023-04-25T01:27:34.054Z,7.91
2023-04-25T01:30:02.969Z,7.84
2023-04-25T01:32:39.276Z,7.87
2023-04-25T01:35:10.638Z,7.85
2023-04-25T01:37:40.838Z,7.80
2023-04-25T01:40:11.656Z,7.87
2023-04-25T01:42:43.338Z,7.82
2023-04-25T01:45:12.920Z,7.82
2023-04-25T01:47:42.720Z,7.86
2023-04-25T01:50:43.463Z,7.88
2023-04-25T01:53:15.486Z,7.91
2023-04-25T01:55:46.295Z,7.87
2023-04-25T01:58:17.585Z,7.95
2023-04-25T02:01:06.311Z,7.93
2023-04-25T02:03:42.414Z,7.96
2023-04-25T02:06:19.263Z,7.83
2023-04-25T02:08:50.522Z,7.89
2023-04-25T02:11:19.102Z,7.86
2023-04-25T02:13:55.441Z,7.78
2023-04-25T02:16:36.910Z,7.74
2023-04-25T02:19:05.388Z,7.69
2023-04-25T02:21:36.767Z,7.54
2023-04-25T02:24:08.609Z,7.45
2023-04-25T02:26:37.389Z,7.31
2023-04-25T02:37:57.195Z,7.16
2023-04-25T02:40:27.194Z,7.11
2023-04-25T02:42:56.279Z,7.00
2023-04-25T02:45:24.611Z,6.94
2023-04-25T02:47:52.885Z,6.89
2023-04-25T02:50:22.438Z,6.86
2023-04-25T02:52:50.726Z,6.80
2023-04-25T02:55:27.024Z,6.76
2023-04-25T02:57:57.960Z,6.60
2023-04-25T03:00:38.292Z,6.45
2023-04-25T03:03:06.768Z,6.38
2023-04-25T03:05:35.147Z,6.42
2023-04-25T03:08:04.021Z,6.41
2023-04-25T03:10:34.268Z,6.37
2023-04-25T03:13:08.185Z,6.30
2023-04-25T03:15:37.148Z,6.22
2023-04-25T03:18:06.236Z,6.12
2023-04-25T03:20:34.582Z,6.05
2023-04-25T03:23:03.065Z,6.00
2023-04-25T03:25:31.880Z,5.91
2023-04-25T03:28:00.640Z,5.92
2023-04-25T03:30:30.402Z,5.84
2023-04-25T03:32:58.664Z,5.77
2023-04-25T03:35:27.057Z,5.73
2023-04-25T03:37:56.381Z,5.70
2023-04-25T03:40:30.501Z,5.62
2023-04-25T03:43:21.756Z,5.40
2023-04-25T03:45:57.421Z,5.41
2023-04-25T03:48:27.690Z,5.28
2023-04-25T03:50:57.006Z,5.23
2023-04-25T03:53:26.009Z,5.22
2023-04-25T03:56:23.879Z,5.19
2023-04-25T03:58:59.653Z,5.16
2023-04-25T04:01:31.840Z,5.13
2023-04-25T04:04:00.492Z,5.19
2023-04-25T04:06:29.825Z,5.18
2023-04-25T04:09:12.021Z,5.27
2023-04-25T04:11:41.662Z,5.38
2023-04-25T04:14:11.157Z,5.54
2023-04-25T04:16:44.234Z,5.61
2023-04-25T04:19:12.678Z,5.67
2023-04-25T04:21:45.684Z,5.61
2023-04-25T04:24:14.528Z,5.70
2023-04-25T04:26:53.217Z,5.72
2023-04-25T04:29:32.240Z,5.73
2023-04-25T04:32:07.154Z,5.88
2023-04-25T04:34:36.074Z,5.98
2023-04-25T04:37:05.282Z,6.02
2023-04-25T04:39:33.748Z,6.11
2023-04-25T04:42:20.886Z,6.12
2023-04-25T04:45:10.369Z,6.14
2023-04-25T04:47:58.833Z,6.20
2023-04-25T04:50:50.504Z,6.32
2023-04-25T04:53:45.139Z,6.41
2023-04-25T04:56:32.961Z,6.58
2023-04-25T04:59:25.542Z,6.58
2023-04-25T05:02:12.602Z,6.68
2023-04-25T05:05:00.653Z,6.71
2023-04-25T05:07:39.314Z,6.79
2023-04-25T05:10:24.082Z,6.88
2023-04-25T05:13:10.969Z,6.91
2023-04-25T05:16:06.116Z,6.82
2023-04-25T05:19:00.780Z,6.77
2023-04-25T05:21:47.516Z,6.92
2023-04-25T05:24:34.309Z,7.07
2023-04-25T05:27:22.588Z,7.19
2023-04-25T05:30:18.274Z,7.28
2023-04-25T05:33:05.967Z,7.35
2023-04-25T05:35:34.629Z,7.41
2023-04-25T05:38:04.502Z,7.45
2023-04-25T05:40:52.956Z,7.49
2023-04-25T05:43:39.970Z,7.48
2023-04-25T05:46:27.749Z,7.52
2023-04-25T05:49:16.988Z,7.86
2023-04-25T05:52:05.952Z,8.13
2023-04-25T05:54:53.780Z,7.99
2023-04-25T05:57:23.788Z,8.00
2023-04-25T05:59:52.310Z,8.17
2023-04-25T06:02:23.198Z,8.35
2023-04-25T06:04:53.317Z,8.55
2023-04-25T06:07:24.040Z,8.79
2023-04-25T06:09:54.554Z,8.85
2023-04-25T06:12:22.970Z,8.77
2023-04-25T06:14:53.722Z,8.97
2023-04-25T06:17:22.574Z,8.90
2023-04-25T06:19:52.488Z,8.87
2023-04-25T06:22:20.940Z,8.85
2023-04-25T06:24:49.295Z,8.98
2023-04-25T06:27:19.089Z,9.07
2023-04-25T06:29:48.152Z,9.08
2023-04-25T06:32:16.755Z,9.25
2023-04-25T06:34:45.141Z,9.55
2023-04-25T06:37:13.989Z,9.73
2023-04-25T06:39:43.589Z,9.62
2023-04-25T06:42:14.381Z,9.64
2023-04-25T06:44:49.963Z,9.88
2023-04-25T06:47:20.001Z,9.97
2023-04-25T06:49:48.566Z,10.18
2023-04-25T06:52:19.152Z,10.29
2023-04-25T06:54:48.651Z,10.45
2023-04-25T06:57:40.539Z,10.75
2023-04-25T07:00:35.976Z,10.86
2023-04-25T07:03:04.781Z,11.09
2023-04-25T07:05:34.073Z,11.27
2023-04-25T07:08:02.955Z,11.47
2023-04-25T07:10:31.452Z,11.53
2023-04-25T07:13:02.219Z,11.92
2023-04-25T07:15:30.892Z,12.21
2023-04-25T07:18:02.264Z,12.53
2023-04-25T07:20:32.203Z,12.65
2023-04-25T07:23:01.012Z,12.79
2023-04-25T07:25:30.746Z,12.98
2023-04-25T07:27:59.333Z,13.19
2023-04-25T07:30:28.726Z,13.51
2023-04-25T07:32:57.873Z,13.99
2023-04-25T07:35:28.163Z,14.65
2023-04-25T07:37:56.839Z,16.03
2023-04-25T07:40:26.386Z,17.40
2023-04-25T07:42:59.242Z,20.54
2023-04-25T07:45:37.592Z,21.58
2023-04-25T07:48:07.013Z,23.14
2023-04-25T07:50:39.802Z,23.13
2023-04-25T07:53:08.285Z,23.86
2023-04-25T07:55:45.191Z,25.53
2023-04-25T07:58:22.270Z,25.70
2023-04-25T08:00:54.519Z,26.49
2023-04-25T08:03:49.331Z,23.06
2023-04-25T08:06:26.994Z,21.30
2023-04-25T08:09:24.828Z,21.12
2023-04-25T08:11:54.659Z,22.49
2023-04-25T08:14:30.148Z,22.42
2023-04-25T08:16:58.526Z,23.07
2023-04-25T08:19:27.600Z,22.84
2023-04-25T08:21:57.972Z,21.17
2023-04-25T08:24:33.200Z,21.73
2023-04-25T08:27:01.804Z,22.67
2023-04-25T08:29:30.750Z,24.31
2023-04-25T08:31:59.544Z,25.10
2023-04-25T08:34:33.811Z,25.28
2023-04-25T08:37:07.196Z,23.98
2023-04-25T08:39:57.348Z,23.09
2023-04-25T08:42:42.407Z,23.15
2023-04-25T08:45:11.928Z,23.29
2023-04-25T08:47:42.710Z,21.60
2023-04-25T08:50:11.535Z,20.44
2023-04-25T08:52:46.533Z,19.47
2023-04-25T08:55:15.661Z,18.86
2023-04-25T08:57:45.024Z,17.64
2023-04-25T09:00:15.905Z,17.41
2023-04-25T09:02:46.163Z,16.97
2023-04-25T09:05:16.359Z,16.90
2023-04-25T09:07:48.556Z,16.85
2023-04-25T09:10:18.866Z,16.82
2023-04-25T09:12:47.170Z,16.69
2023-04-25T09:18:12.456Z,16.48
2023-04-25T09:23:20.692Z,17.00
2023-04-25T09:25:50.540Z,17.11
2023-04-25T09:28:25.093Z,17.73
2023-04-25T09:30:58.474Z,18.01
2023-04-25T09:33:36.088Z,18.71
2023-04-25T09:36:07.504Z,19.38
2023-04-25T09:39:04.709Z,19.73
2023-04-25T09:41:40.134Z,19.82
2023-04-25T09:44:08.450Z,19.87
2023-04-25T09:46:39.067Z,19.38
2023-04-25T09:49:12.666Z,18.97
2023-04-25T09:52:02.718Z,18.98
2023-04-25T09:54:38.519Z,18.80
2023-04-25T09:57:19.003Z,19.90
2023-04-25T09:59:49.328Z,19.51
2023-04-25T10:02:20.546Z,20.46
2023-04-25T10:04:53.812Z,21.52
2023-04-25T10:07:32.464Z,21.03
2023-04-25T10:10:05.189Z,22.49
2023-04-25T10:12:35.217Z,22.33
2023-04-25T10:15:06.205Z,22.50
2023-04-25T10:17:35.200Z,22.71
2023-04-25T10:20:05.119Z,23.13
2023-04-25T10:22:37.050Z,23.32
2023-04-25T10:25:09.726Z,23.99
2023-04-25T10:27:38.265Z,26.16
2023-04-25T10:30:11.272Z,26.28
2023-04-25T10:32:39.624Z,27.49
2023-04-25T10:35:16.539Z,28.12
2023-04-25T10:37:59.888Z,27.47
2023-04-25T10:40:29.708Z,26.19
2023-04-25T10:42:58.137Z,26.06
2023-04-25T10:45:26.456Z,25.72
2023-04-25T10:47:57.200Z,27.77
2023-04-25T10:50:40.205Z,27.20
2023-04-25T10:53:17.224Z,26.00
2023-04-25T10:55:59.321Z,26.80
2023-04-25T10:58:28.757Z,28.21
2023-04-25T11:00:58.025Z,27.51
2023-04-25T11:03:26.950Z,28.52
2023-04-25T11:05:58.515Z,27.69
2023-04-25T11:08:49.193Z,24.23
2023-04-25T11:11:22.664Z,26.05
2023-04-25T11:13:53.485Z,24.13
2023-04-25T11:16:28.392Z,26.07
2023-04-25T11:18:59.905Z,25.20
2023-04-25T11:21:28.995Z,23.70
2023-04-25T11:23:58.864Z,22.52
2023-04-25T11:26:28.620Z,22.12
2023-04-25T11:29:01.049Z,22.47
2023-04-25T11:31:29.404Z,21.46
2023-04-25T11:33:59.677Z,20.98
2023-04-25T11:36:28.739Z,20.43
2023-04-25T11:38:57.381Z,19.37
2023-04-25T11:41:26.630Z,19.16
2023-04-25T11:43:56.885Z,19.17
2023-04-25T11:46:25.146Z,18.78
2023-04-25T11:48:53.873Z,18.41
2023-04-25T11:51:22.425Z,17.40
2023-04-25T11:53:51.524Z,16.38
2023-04-25T11:56:19.857Z,15.65
2023-04-25T11:58:59.813Z,15.07
2023-04-25T12:01:32.063Z,14.47
2023-04-25T12:04:14.262Z,14.24
2023-04-25T12:06:46.218Z,13.77
2023-04-25T12:09:15.758Z,14.21
2023-04-25T12:11:44.945Z,14.52
2023-04-25T12:14:15.211Z,14.77
2023-04-25T12:16:44.894Z,15.04
2023-04-25T12:19:16.520Z,15.62
2023-04-25T12:21:58.119Z,16.39
2023-04-25T12:24:29.257Z,17.31
2023-04-25T12:27:02.322Z,18.33
2023-04-25T12:29:48.594Z,19.09
2023-04-25T12:32:34.488Z,19.65
2023-04-25T12:35:02.905Z,19.61
2023-04-25T12:37:32.046Z,19.00
2023-04-25T12:40:00.469Z,18.67
2023-04-25T12:42:28.901Z,18.24
2023-04-25T12:44:57.095Z,18.50
2023-04-25T12:47:25.333Z,18.65
2023-04-25T12:49:54.886Z,18.54
2023-04-25T12:52:23.106Z,18.98
2023-04-25T12:54:51.291Z,19.20
2023-04-25T12:57:19.389Z,18.74
2023-04-25T12:59:47.843Z,18.64
2023-04-25T13:02:16.328Z,19.11
2023-04-25T13:04:44.598Z,19.00
2023-04-25T13:07:14.186Z,19.04
2023-04-25T13:09:42.448Z,19.55
2023-04-25T13:12:10.706Z,19.87
2023-04-25T13:14:39.046Z,20.27
2023-04-25T13:17:07.516Z,20.43
2023-04-25T13:19:35.823Z,20.24
2023-04-25T13:22:05.397Z,19.86
2023-04-25T13:24:35.157Z,20.03
2023-04-25T13:27:04.333Z,20.02
2023-04-25T13:29:32.768Z,19.47
2023-04-25T13:32:01.447Z,19.95
2023-04-25T13:34:30.381Z,20.37
2023-04-25T13:36:58.508Z,20.25
2023-04-25T13:39:27.020Z,20.44
2023-04-25T13:41:57.223Z,19.87
2023-04-25T13:44:25.367Z,19.52
2023-04-25T13:46:54.040Z,19.52
2023-04-25T13:49:24.067Z,19.26
2023-04-25T13:51:52.178Z,19.45
2023-04-25T13:54:20.318Z,19.08
2023-04-25T13:56:49.900Z,18.78
2023-04-25T13:59:19.567Z,18.44
2023-04-25T14:01:47.863Z,18.35
2023-04-25T14:04:16.090Z,18.28
2023-04-25T14:06:44.404Z,18.38
2023-04-25T14:09:13.734Z,18.23
2023-04-25T14:11:42.072Z,18.13
2023-04-25T14:14:10.348Z,18.20
2023-04-25T14:16:40.413Z,18.01
2023-04-25T14:19:08.557Z,17.92
2023-04-25T14:21:36.858Z,17.60
2023-04-25T14:24:06.096Z,17.74
2023-04-25T14:26:36.782Z,17.32
2023-04-25T14:29:05.394Z,17.34
2023-04-25T14:31:33.612Z,17.23
2023-04-25T14:34:04.484Z,17.20
2023-04-25T14:36:33.139Z,17.04
2023-04-25T14:39:02.124Z,17.12
2023-04-25T14:41:30.393Z,16.89
2023-04-25T14:43:58.819Z,16.76
2023-04-25T14:46:27.241Z,16.93
2023-04-25T14:48:56.979Z,16.81
2023-04-25T14:51:27.543Z,16.74
2023-04-25T14:53:56.184Z,16.72
2023-04-25T14:56:24.378Z,16.59
2023-04-25T14:58:52.717Z,16.49
2023-04-25T15:01:23.070Z,16.50
2023-04-25T15:03:53.042Z,16.35
2023-04-25T15:06:21.979Z,16.14
2023-04-25T15:08:51.541Z,16.13
2023-04-25T15:11:21.373Z,15.99
2023-04-25T15:13:49.843Z,16.02
2023-04-25T15:16:18.229Z,16.12
2023-04-25T15:18:46.582Z,15.72
2023-04-25T15:21:14.841Z,15.95
2023-04-25T15:23:43.135Z,15.93
2023-04-25T15:26:13.045Z,16.19
2023-04-25T15:28:42.385Z,16.32
2023-04-25T15:31:10.722Z,16.28
2023-04-25T15:33:39.241Z,16.29
2023-04-25T15:36:08.587Z,16.20
2023-04-25T15:38:37.201Z,16.37
2023-04-25T15:41:07.190Z,16.33
2023-04-25T15:43:38.913Z,16.30
2023-04-25T15:46:07.296Z,16.08
2023-04-25T15:48:36.380Z,15.96
2023-04-25T15:51:04.889Z,15.68
2023-04-25T15:53:33.233Z,15.63
2023-04-25T15:56:02.170Z,15.33
2023-04-25T15:58:30.654Z,15.29
2023-04-25T16:01:00.634Z,15.19
2023-04-25T16:03:29.336Z,15.29
2023-04-25T16:05:58.065Z,15.32
2023-04-25T16:08:26.688Z,15.27
2023-04-25T16:10:55.025Z,15.33
2023-04-25T16:13:23.282Z,15.29
2023-04-25T16:15:51.775Z,15.46
2023-04-25T16:18:21.702Z,15.46
2023-04-25T16:20:49.975Z,15.57
2023-04-25T16:23:18.471Z,15.54
2023-04-25T16:25:47.011Z,15.54
2023-04-25T16:28:15.377Z,15.53
2023-04-25T16:30:43.787Z,15.52
2023-04-25T16:33:12.278Z,15.53
2023-04-25T16:35:41.917Z,15.50
2023-04-25T16:38:10.002Z,15.47
2023-04-25T16:40:38.314Z,15.43
2023-04-25T16:43:06.696Z,15.41
2023-04-25T16:45:35.023Z,15.45
2023-04-25T16:48:03.815Z,15.17
2023-04-25T16:50:32.339Z,15.12
2023-04-25T16:53:02.242Z,15.13
2023-04-25T16:55:31.627Z,15.00
2023-04-25T16:58:00.216Z,14.96
2023-04-25T17:00:28.510Z,14.87
2023-04-25T17:02:56.936Z,14.76
2023-04-25T17:05:26.855Z,14.65
2023-04-25T17:07:55.412Z,14.56
2023-04-25T17:10:27.153Z,14.53
2023-04-25T17:12:55.587Z,14.58
2023-04-25T17:15:24.613Z,14.59
2023-04-25T17:17:53.774Z,14.60
2023-04-25T17:20:22.754Z,14.51
2023-04-25T17:22:51.768Z,14.48
2023-04-25T17:25:20.472Z,14.46
2023-04-25T17:27:50.733Z,14.22
2023-04-25T17:30:20.161Z,14.03
2023-04-25T17:32:48.642Z,13.94
2023-04-25T17:35:17.884Z,13.91
2023-04-25T17:37:47.301Z,13.56
2023-04-25T17:40:18.528Z,13.58
2023-04-25T17:42:47.501Z,13.31
2023-04-25T17:45:18.318Z,13.15
2023-04-25T17:47:47.361Z,13.03
2023-04-25T17:50:16.933Z,12.91
2023-04-25T17:52:51.397Z,12.82
2023-04-25T17:55:21.469Z,12.75
2023-04-25T17:57:50.382Z,12.57
2023-04-25T18:00:21.209Z,12.39
2023-04-25T18:02:52.799Z,12.37
2023-04-25T18:05:21.804Z,12.20
2023-04-25T18:07:51.632Z,12.13
2023-04-25T18:10:20.371Z,12.05
2023-04-25T18:12:50.998Z,11.99
2023-04-25T18:15:22.614Z,11.90
2023-04-25T18:17:51.586Z,11.70
2023-04-25T18:20:22.635Z,11.61
2023-04-25T18:22:51.313Z,11.56
2023-04-25T18:25:20.198Z,11.58
2023-04-25T18:27:50.954Z,11.52
2023-04-25T18:30:22.816Z,11.40
2023-04-25T18:32:53.186Z,11.33
2023-04-25T18:35:23.318Z,11.28
2023-04-25T18:37:52.464Z,11.26
2023-04-25T18:40:21.350Z,11.23
2023-04-25T18:42:52.343Z,11.20
2023-04-25T18:45:23.189Z,11.14
2023-04-25T18:47:54.221Z,11.07
2023-04-25T18:50:26.959Z,11.01
2023-04-25T18:52:57.022Z,11.01
2023-04-25T18:55:26.248Z,10.93
2023-04-25T18:57:54.659Z,10.91
2023-04-25T19:00:25.181Z,10.83
2023-04-25T19:02:56.369Z,10.75
2023-04-25T19:05:26.190Z,10.70
2023-04-25T19:07:55.951Z,10.65
2023-04-25T19:10:25.564Z,10.57
2023-04-25T19:12:55.330Z,10.55
2023-04-25T19:15:26.899Z,10.44
2023-04-25T19:17:56.122Z,10.44
2023-04-25T19:20:25.599Z,10.44
2023-04-25T19:22:55.017Z,10.40
2023-04-25T19:25:25.347Z,10.34
2023-04-25T19:27:55.201Z,10.27
2023-04-25T19:30:26.493Z,10.24
2023-04-25T19:32:57.300Z,10.20
2023-04-25T19:35:31.225Z,10.19
2023-04-25T19:38:00.864Z,10.14
2023-04-25T19:40:30.900Z,10.09
2023-04-25T19:43:00.569Z,10.04
2023-04-25T19:45:31.866Z,10.01
2023-04-25T19:48:03.066Z,9.97
2023-04-25T19:50:32.211Z,9.95
2023-04-25T19:53:01.658Z,9.91
2023-04-25T19:55:30.799Z,9.89
2023-04-25T19:57:59.920Z,9.84
2023-04-25T20:00:28.842Z,9.76
2023-04-25T20:03:02.464Z,9.70
2023-04-25T20:05:32.826Z,9.55
2023-04-25T20:08:01.859Z,9.50
2023-04-25T20:10:32.281Z,9.35
2023-04-25T20:13:01.927Z,9.27
2023-04-25T20:15:33.269Z,9.17
2023-04-25T20:18:03.210Z,8.93
2023-04-25T20:20:31.734Z,8.85
2023-04-25T20:23:00.406Z,8.74
2023-04-25T20:25:29.810Z,8.62
2023-04-25T20:27:59.162Z,8.59
2023-04-25T20:30:28.944Z,8.49
2023-04-25T20:32:57.128Z,8.40
2023-04-25T20:35:27.435Z,8.37
2023-04-25T20:37:55.776Z,8.30
2023-04-25T20:40:24.079Z,8.26
2023-04-25T20:42:52.583Z,8.16
2023-04-25T20:45:21.278Z,8.08
2023-04-25T20:47:50.202Z,7.99
2023-04-25T20:50:18.692Z,7.94
2023-04-25T20:52:49.046Z,7.87
2023-04-25T20:55:17.436Z,7.82
2023-04-25T20:57:45.706Z,7.77
2023-04-25T21:00:18.880Z,7.75
2023-04-25T21:02:47.800Z,7.72
2023-04-25T21:05:16.580Z,7.68
2023-04-25T21:07:45.728Z,7.58
2023-04-25T21:10:16.124Z,7.57
2023-04-25T21:12:48.160Z,7.54
2023-04-25T21:15:18.273Z,7.51
2023-04-25T21:17:47.868Z,7.47
2023-04-25T21:20:17.908Z,7.46
2023-04-25T21:22:51.156Z,7.42
2023-04-25T21:25:31.035Z,7.41
2023-04-25T21:28:02.330Z,7.35
2023-04-25T21:30:31.140Z,7.31
2023-04-25T21:32:59.641Z,7.30
2023-04-25T21:35:27.888Z,7.30
2023-04-25T21:37:56.355Z,7.28
2023-04-25T21:40:26.544Z,7.25
2023-04-25T21:42:54.789Z,7.31
2023-04-25T21:45:23.203Z,7.33
2023-04-25T21:47:51.958Z,7.37
2023-04-25T21:50:20.738Z,7.40
2023-04-25T21:52:49.433Z,7.40
2023-04-25T21:55:17.828Z,7.45
2023-04-25T21:57:47.587Z,7.43
2023-04-25T22:00:24.781Z,7.38
2023-04-25T22:02:53.859Z,7.40
2023-04-25T22:05:22.844Z,7.33
2023-04-25T22:07:52.258Z,7.27
2023-04-25T22:10:21.691Z,7.24
2023-04-25T22:12:51.522Z,7.25
2023-04-25T22:15:23.613Z,7.23
2023-04-25T22:17:52.888Z,7.28
2023-04-25T22:20:24.394Z,7.29
2023-04-25T22:22:53.306Z,7.33
2023-04-25T22:25:22.250Z,7.40
2023-04-25T22:27:52.518Z,7.40
2023-04-25T22:30:20.762Z,7.34
2023-04-25T22:32:48.972Z,7.33
2023-04-25T22:35:17.485Z,7.32
2023-04-25T22:37:46.035Z,7.27
2023-04-25T22:40:15.614Z,7.27
2023-04-25T22:42:44.472Z,7.21
2023-04-25T22:45:14.873Z,7.20
2023-04-25T22:47:43.233Z,7.18
2023-04-25T22:50:16.813Z,7.17
2023-04-25T22:52:45.233Z,7.15
2023-04-25T22:55:13.598Z,7.11
2023-04-25T22:57:42.624Z,7.06
2023-04-25T23:00:16.538Z,7.04
2023-04-25T23:02:47.296Z,6.95
2023-04-25T23:05:15.754Z,6.87
2023-04-25T23:07:45.221Z,6.81
2023-04-25T23:10:14.392Z,6.81
2023-04-25T23:12:42.917Z,6.73
2023-04-25T23:15:13.221Z,6.64
2023-04-25T23:17:42.233Z,6.64
2023-04-25T23:20:13.490Z,6.58
2023-04-25T23:22:42.178Z,6.51
2023-04-25T23:25:11.953Z,6.47
2023-04-25T23:27:40.248Z,6.43
2023-04-25T23:30:10.294Z,6.39
2023-04-25T23:32:39.137Z,6.43
2023-04-25T23:35:08.433Z,6.51
2023-04-25T23:37:38.770Z,6.51
2023-04-25T23:40:10.044Z,6.56
2023-04-25T23:42:38.996Z,6.57
2023-04-25T23:45:09.119Z,6.55
2023-04-25T23:47:37.798Z,6.55
2023-04-25T23:50:08.109Z,6.62
2023-04-25T23:52:38.005Z,6.66
2023-04-25T23:55:07.197Z,6.63
2023-04-25T23:57:35.605Z,6.71
